Time;durP1;ratioP1;P1;durP2;ratioP2;P2;SDS_P1;SDS_P2;PMS_P1;PMS_P2;Temp;Humidity;BMP_temperature;BMP_pressure;BME280_temperature;BME280_humidity;BME280_pressure;Samples;Min_cycle;Max_cycle;Signal;HPM_P1;HPM_P2
2022/11/15 00:00:17;;;;;;;14.35;1.80;;;9.90;93.10;;;;;;5102787;28;20036;-72
2022/11/15 00:02:43;;;;;;;9.48;3.88;;;10.00;92.20;;;;;;5102824;28;20473;-71
2022/11/15 00:05:09;;;;;;;16.98;2.75;;;10.00;91.80;;;;;;5102465;28;20059;-72
2022/11/15 00:07:34;;;;;;;14.77;2.75;;;10.20;91.30;;;;;;5101773;28;20038;-72
2022/11/15 00:10:00;;;;;;;10.85;2.58;;;10.30;91.20;;;;;;5099649;28;20055;-72
2022/11/15 00:12:27;;;;;;;14.43;2.08;;;10.40;91.00;;;;;;5103647;28;20119;-72
2022/11/15 00:14:53;;;;;;;8.80;1.52;;;10.50;91.70;;;;;;5102908;28;20081;-73
2022/11/15 00:17:19;;;;;;;8.38;1.23;;;10.50;91.90;;;;;;5102865;28;20447;-72
2022/11/15 00:19:44;;;;;;;9.68;1.80;;;10.50;91.70;;;;;;5103039;28;20028;-72
2022/11/15 00:22:10;;;;;;;27.35;1.30;;;10.60;91.00;;;;;;5102495;28;20031;-73
2022/11/15 00:24:36;;;;;;;4.13;0.80;;;10.70;91.00;;;;;;5102025;28;20023;-74
2022/11/15 00:27:02;;;;;;;3.83;0.55;;;10.80;90.10;;;;;;5096711;28;20031;-73
2022/11/15 00:29:28;;;;;;;5.65;0.68;;;10.80;90.20;;;;;;5079240;28;20036;-73
2022/11/15 00:31:53;;;;;;;8.40;1.20;;;10.90;90.30;;;;;;5095525;28;20071;-72
2022/11/15 00:34:19;;;;;;;7.88;0.95;;;11.00;87.70;;;;;;5100497;28;20039;-73
2022/11/15 00:36:45;;;;;;;6.32;0.70;;;11.10;88.00;;;;;;5080262;28;20356;-73
2022/11/15 00:39:10;;;;;;;8.63;1.13;;;11.00;89.60;;;;;;5101525;28;20039;-72
2022/11/15 00:41:36;;;;;;;12.60;0.98;;;11.10;86.80;;;;;;5101539;28;20019;-72
2022/11/15 00:44:01;;;;;;;3.53;0.63;;;11.20;85.90;;;;;;5098802;28;20039;-72
2022/11/15 00:46:27;;;;;;;4.90;0.65;;;11.20;88.40;;;;;;5099682;28;20019;-72
2022/11/15 00:48:52;;;;;;;5.03;1.25;;;11.20;88.00;;;;;;5102152;28;20032;-72
2022/11/15 00:51:18;;;;;;;9.95;1.13;;;11.30;87.10;;;;;;5102162;28;20035;-72
2022/11/15 00:53:44;;;;;;;6.40;0.90;;;11.20;89.40;;;;;;5101978;28;20138;-72
2022/11/15 00:56:09;;;;;;;5.43;0.55;;;11.20;88.90;;;;;;5101836;28;20078;-71
2022/11/15 00:58:35;;;;;;;9.18;1.30;;;11.20;89.60;;;;;;5101424;28;20035;-72
2022/11/15 01:01:12;;;;;;;6.15;1.30;;;11.10;89.30;;;;;;5101180;28;20039;-72
2022/11/15 01:03:39;;;;;;;10.02;1.02;;;11.20;90.00;;;;;;5099653;28;20046;-72
2022/11/15 01:06:06;;;;;;;12.57;1.15;;;11.10;91.00;;;;;;5081969;28;20042;-72
2022/11/15 01:08:32;;;;;;;9.45;1.25;;;11.10;90.80;;;;;;5101968;28;20035;-72
2022/11/15 01:11:05;;;;;;;10.00;1.10;;;11.20;90.50;;;;;;5101063;28;20032;-72
2022/11/15 01:13:32;;;;;;;6.22;0.77;;;11.20;91.10;;;;;;5102086;28;20032;-72
2022/11/15 01:15:59;;;;;;;8.95;1.17;;;11.20;90.20;;;;;;5099652;28;20023;-72
2022/11/15 01:18:24;;;;;;;8.85;1.10;;;11.20;90.70;;;;;;5098786;28;20084;-73
2022/11/15 01:20:50;;;;;;;10.18;1.30;;;11.20;90.40;;;;;;5100298;28;20035;-73
2022/11/15 01:23:16;;;;;;;7.45;0.90;;;11.30;90.30;;;;;;5098273;28;20084;-72
2022/11/15 01:25:41;;;;;;;5.50;1.35;;;11.20;90.90;;;;;;5097859;28;20693;-72
2022/11/15 01:28:07;;;;;;;7.40;1.15;;;11.30;90.10;;;;;;5100705;28;20700;-72
2022/11/15 01:30:33;;;;;;;5.20;1.00;;;11.30;89.50;;;;;;5101022;28;20058;-72
2022/11/15 01:32:58;;;;;;;9.52;1.05;;;11.30;89.40;;;;;;5099888;28;20191;-72
2022/11/15 01:35:24;;;;;;;4.72;0.68;;;11.40;89.90;;;;;;5093126;28;20028;-72
2022/11/15 01:37:49;;;;;;;7.68;0.90;;;11.40;90.10;;;;;;5102209;28;20027;-72
2022/11/15 01:40:15;;;;;;;12.70;1.55;;;11.40;90.20;;;;;;5100154;28;20027;-72
2022/11/15 01:42:41;;;;;;;11.13;1.80;;;11.40;90.30;;;;;;5099985;28;20027;-72
2022/11/15 01:45:14;;;;;;;6.85;1.05;;;11.30;90.20;;;;;;5081948;28;20098;-72
2022/11/15 01:47:44;;;;;;;7.65;0.93;;;11.30;91.00;;;;;;5100635;28;20047;-72
2022/11/15 01:50:14;;;;;;;11.27;1.38;;;11.40;90.30;;;;;;5093599;28;20499;-72
2022/11/15 01:52:40;;;;;;;10.25;1.08;;;11.50;90.40;;;;;;5101355;28;20036;-72
2022/11/15 01:55:14;;;;;;;4.13;1.48;;;11.60;90.00;;;;;;5101273;28;20086;-72
2022/11/15 01:57:42;;;;;;;11.40;1.40;;;11.70;90.50;;;;;;5101957;28;20020;-72
2022/11/15 02:00:08;;;;;;;12.18;1.15;;;11.70;90.30;;;;;;5099246;28;20042;-73
2022/11/15 02:02:36;;;;;;;10.20;1.30;;;11.70;91.20;;;;;;5096570;28;20031;-72
2022/11/15 02:05:02;;;;;;;15.18;1.42;;;11.70;91.20;;;;;;5099777;28;20434;-72
2022/11/15 02:07:30;;;;;;;9.48;1.00;;;11.80;90.30;;;;;;5093947;28;20028;-72
2022/11/15 02:10:01;;;;;;;9.75;1.10;;;11.90;90.70;;;;;;5081333;28;20024;-72
2022/11/15 02:12:27;;;;;;;;;;;11.90;90.10;;;;;;5088828;28;20060;-72
2022/11/15 02:14:54;;;;;;;10.18;1.45;;;11.90;90.50;;;;;;5098858;28;20388;-73
2022/11/15 02:17:46;;;;;;;16.75;1.60;;;12.10;89.60;;;;;;5100261;28;20019;-72
2022/11/15 02:20:14;;;;;;;9.05;0.90;;;12.20;90.00;;;;;;5091505;28;20028;-72
2022/11/15 02:22:46;;;;;;;10.35;1.23;;;12.20;89.80;;;;;;5105357;28;20019;-72
2022/11/15 02:25:39;;;;;;;10.77;1.85;;;12.30;88.90;;;;;;5105275;28;20028;-72
2022/11/15 02:28:29;;;;;;;11.50;1.27;;;12.30;90.20;;;;;;5083785;28;20043;-73
2022/11/15 02:31:14;;;;;;;12.45;1.20;;;12.40;89.50;;;;;;5091470;28;20085;-72
2022/11/15 02:34:04;;;;;;;12.88;1.05;;;12.50;88.60;;;;;;5098121;28;20127;-72
2022/11/15 02:36:43;;;;;;;9.35;1.10;;;12.50;88.20;;;;;;5092389;28;20027;-72
2022/11/15 02:39:33;;;;;;;8.98;1.35;;;12.50;89.00;;;;;;5103228;28;20126;-72
2022/11/15 02:45:06;;;;;;;8.27;1.15;;;12.40;89.60;;;;;;5103626;28;20120;-71
2022/11/15 02:47:37;;;;;;;12.63;1.60;;;12.40;90.10;;;;;;5084750;28;20084;-73
2022/11/15 02:50:08;;;;;;;9.65;1.30;;;12.40;90.40;;;;;;5103820;28;20039;-72
2022/11/15 02:52:34;;;;;;;9.40;1.27;;;12.40;90.30;;;;;;5085717;28;20093;-72
2022/11/15 02:55:01;;;;;;;12.35;1.20;;;12.50;90.00;;;;;;5103619;28;20043;-72
2022/11/15 02:57:44;;;;;;;8.43;1.52;;;12.50;89.90;;;;;;5096221;28;20028;-72
2022/11/15 03:00:15;;;;;;;12.25;1.30;;;12.60;89.70;;;;;;5094590;28;20035;-71
2022/11/15 03:03:05;;;;;;;11.70;1.63;;;12.60;89.40;;;;;;5091939;28;20035;-72
2022/11/15 03:06:00;;;;;;;13.77;1.50;;;12.70;89.00;;;;;;5096444;28;20051;-72
2022/11/15 03:08:31;;;;;;;12.00;1.45;;;12.80;89.40;;;;;;5101005;28;20076;-72
2022/11/15 03:11:08;;;;;;;16.20;1.65;;;12.80;88.60;;;;;;5087762;28;20923;-73
2022/11/15 03:13:57;;;;;;;12.23;1.80;;;12.90;88.20;;;;;;5091262;28;20126;-72
2022/11/15 03:16:23;;;;;;;8.93;1.05;;;12.80;90.10;;;;;;5100859;28;20015;-71
2022/11/15 03:18:55;;;;;;;9.38;1.65;;;12.80;88.20;;;;;;5103030;28;20428;-72
2022/11/15 03:21:22;;;;;;;13.05;1.30;;;12.70;88.60;;;;;;5075775;28;20701;-72
2022/11/15 03:23:49;;;;;;;8.60;1.10;;;12.70;88.20;;;;;;5098364;28;20055;-72
2022/11/15 03:26:19;;;;;;;12.43;1.00;;;12.80;88.40;;;;;;5102368;28;20823;-73
2022/11/15 03:29:03;;;;;;;8.98;0.85;;;12.80;87.40;;;;;;5101397;28;20790;-72
2022/11/15 03:31:48;;;;;;;6.85;1.20;;;12.70;88.00;;;;;;5103487;28;20194;-72
2022/11/15 03:34:22;;;;;;;13.13;1.10;;;12.80;88.10;;;;;;5102813;28;20063;-71
2022/11/15 03:36:50;;;;;;;10.18;1.70;;;12.70;88.70;;;;;;5101644;28;20032;-71
2022/11/15 03:39:16;;;;;;;9.38;1.38;;;12.60;89.20;;;;;;5102758;28;20039;-72
2022/11/15 03:42:00;;;;;;;10.10;1.73;;;12.70;90.30;;;;;;5102892;28;20034;-72
2022/11/15 03:44:41;;;;;;;9.27;1.20;;;12.70;90.00;;;;;;5101864;28;20131;-72
2022/11/15 03:47:13;;;;;;;10.15;0.95;;;12.70;88.30;;;;;;5093887;28;20039;-71
2022/11/15 03:49:49;;;;;;;8.65;1.08;;;12.80;87.90;;;;;;5104237;28;20143;-72
2022/11/15 03:52:18;;;;;;;13.02;1.75;;;12.80;89.00;;;;;;5092382;28;20031;-72
2022/11/15 03:54:52;;;;;;;8.23;1.40;;;12.80;89.30;;;;;;5103281;28;20031;-72
2022/11/15 03:57:18;;;;;;;15.95;1.52;;;12.80;89.10;;;;;;5103386;28;20165;-71
2022/11/15 03:59:44;;;;;;;15.75;1.55;;;12.80;89.60;;;;;;5102087;28;20487;-72
2022/11/15 04:02:09;;;;;;;13.52;1.98;;;12.90;90.30;;;;;;5099542;28;20039;-71
2022/11/15 04:04:35;;;;;;;16.27;3.25;;;12.80;90.10;;;;;;5087386;28;20094;-72
2022/11/15 04:07:01;;;;;;;9.65;1.77;;;12.70;90.80;;;;;;5080392;28;20087;-72
2022/11/15 04:09:26;;;;;;;18.55;1.75;;;12.60;90.30;;;;;;5098972;28;20043;-72
2022/11/15 04:11:52;;;;;;;8.10;1.23;;;12.70;90.30;;;;;;5102234;28;20028;-72
2022/11/15 04:14:17;;;;;;;12.60;1.27;;;12.60;90.30;;;;;;5100788;28;20027;-72
2022/11/15 04:16:43;;;;;;;12.13;1.98;;;12.70;90.30;;;;;;5102112;28;20088;-72
2022/11/15 04:24:36;;;;;;;9.55;1.15;;;12.60;88.90;;;;;;5102119;28;20062;-72
2022/11/15 04:27:02;;;;;;;8.82;1.25;;;12.60;89.50;;;;;;5102151;28;20028;-72
2022/11/15 04:29:34;;;;;;;8.27;1.30;;;12.60;88.90;;;;;;5090710;28;20050;-71
2022/11/15 04:31:59;;;;;;;;;;;12.60;89.60;;;;;;5103146;28;20031;-72
2022/11/15 04:34:25;;;;;;;6.47;1.10;;;12.60;89.40;;;;;;5102805;28;20239;-72
2022/11/15 04:39:35;;;;;;;14.02;2.13;;;12.50;90.30;;;;;;5085127;28;20046;-71
2022/11/15 04:42:00;;;;;;;11.20;1.52;;;12.60;89.40;;;;;;5102893;28;20028;-72
2022/11/15 04:44:26;;;;;;;13.25;1.58;;;12.70;88.40;;;;;;5085576;28;20129;-72
2022/11/15 04:46:52;;;;;;;11.18;1.45;;;12.60;88.80;;;;;;5096619;28;20030;-72
2022/11/15 04:49:17;;;;;;;14.43;1.48;;;12.60;90.00;;;;;;5101235;28;20402;-72
2022/11/15 04:51:43;;;;;;;8.52;1.73;;;12.60;90.20;;;;;;5102119;28;20031;-71
2022/11/15 04:54:09;;;;;;;13.88;1.58;;;12.60;90.60;;;;;;5101184;28;20072;-72
2022/11/15 04:56:34;;;;;;;11.85;1.52;;;12.60;90.30;;;;;;5102604;28;20604;-72
2022/11/15 04:59:00;;;;;;;13.98;1.50;;;12.60;90.70;;;;;;5084364;28;20190;-72
2022/11/15 05:01:25;;;;;;;14.20;2.38;;;12.60;90.80;;;;;;5098861;28;20120;-71
2022/11/15 05:06:35;;;;;;;15.00;1.55;;;12.60;91.20;;;;;;5102326;28;20096;-72
2022/11/15 05:09:01;;;;;;;10.82;1.75;;;12.60;90.40;;;;;;5102209;28;20122;-72
2022/11/15 05:11:27;;;;;;;11.30;1.65;;;12.70;90.40;;;;;;5097730;28;20028;-72
2022/11/15 05:13:53;;;;;;;9.57;1.58;;;12.60;90.50;;;;;;5087722;28;20124;-72
2022/11/15 05:16:18;;;;;;;12.82;1.88;;;12.70;90.60;;;;;;5080284;28;20066;-72
2022/11/15 05:18:44;;;;;;;11.68;1.38;;;12.70;90.70;;;;;;5097970;28;20394;-71
2022/11/15 05:21:14;;;;;;;16.90;1.50;;;12.70;90.00;;;;;;5081386;28;20076;-72
2022/11/15 05:23:40;;;;;;;15.70;2.03;;;12.60;90.20;;;;;;5101134;28;20155;-72
2022/11/15 05:26:07;;;;;;;10.27;1.52;;;12.60;90.70;;;;;;5100402;28;20454;-71
2022/11/15 05:28:33;;;;;;;11.13;1.85;;;12.60;89.80;;;;;;5099670;28;20062;-74
2022/11/15 05:31:11;;;;;;;10.85;1.35;;;12.70;90.00;;;;;;5101425;28;20039;-71
2022/11/15 05:33:38;;;;;;;14.80;1.92;;;12.70;90.10;;;;;;5099057;28;20032;-71
2022/11/15 05:36:16;;;;;;;17.42;1.85;;;12.60;90.60;;;;;;5100230;28;20042;-71
2022/11/15 05:38:42;;;;;;;10.55;1.73;;;12.60;90.20;;;;;;5089725;28;20593;-71
2022/11/15 05:41:07;;;;;;;17.35;1.85;;;12.60;90.50;;;;;;5101396;28;20032;-71
2022/11/15 05:43:36;;;;;;;11.15;1.58;;;12.60;91.10;;;;;;5094023;28;20402;-71
2022/11/15 05:46:03;;;;;;;13.43;2.53;;;12.50;91.00;;;;;;5099460;28;20027;-71
2022/11/15 05:48:28;;;;;;;14.25;1.83;;;12.50;91.00;;;;;;5100654;28;20143;-71
2022/11/15 05:50:54;;;;;;;16.00;1.90;;;12.60;90.70;;;;;;5078967;28;20483;-73
2022/11/15 05:53:22;;;;;;;9.77;1.55;;;12.60;90.70;;;;;;5081467;28;20028;-73
2022/11/15 05:55:48;;;;;;;14.00;1.50;;;12.60;90.90;;;;;;5081331;28;20101;-74
2022/11/15 05:58:14;;;;;;;13.80;1.80;;;12.60;90.60;;;;;;5090307;28;20446;-73
2022/11/15 06:00:40;;;;;;;11.48;1.48;;;12.60;91.10;;;;;;5100804;28;20696;-73
2022/11/15 06:03:06;;;;;;;13.80;1.40;;;12.50;91.10;;;;;;5097672;28;20053;-73
2022/11/15 06:05:33;;;;;;;14.45;2.10;;;12.50;91.30;;;;;;5099048;28;20100;-73
2022/11/15 06:07:59;;;;;;;9.82;2.10;;;12.60;91.20;;;;;;5100215;28;20047;-73
2022/11/15 06:10:24;;;;;;;18.52;2.28;;;12.60;90.90;;;;;;5096340;28;20039;-73
2022/11/15 06:12:58;;;;;;;19.10;1.80;;;12.60;91.20;;;;;;5099655;28;20031;-73
2022/11/15 06:15:23;;;;;;;12.13;2.55;;;12.60;91.20;;;;;;5099989;28;20040;-73
2022/11/15 06:17:49;;;;;;;11.63;1.60;;;12.60;91.90;;;;;;5098912;28;20035;-73
2022/11/15 06:20:15;;;;;;;14.43;2.10;;;12.50;92.00;;;;;;5099645;28;20070;-74
2022/11/15 06:22:40;;;;;;;15.43;2.47;;;12.40;93.00;;;;;;5098903;28;20032;-73
2022/11/15 06:25:06;;;;;;;14.18;1.98;;;12.30;93.60;;;;;;5099428;28;20436;-73
2022/11/15 06:27:32;;;;;;;14.75;1.77;;;12.20;93.50;;;;;;5097834;28;20043;-73
2022/11/15 06:29:57;;;;;;;12.27;1.67;;;12.10;94.20;;;;;;5084655;28;20197;-74
2022/11/15 06:32:23;;;;;;;25.92;3.65;;;12.00;95.10;;;;;;5097553;28;20076;-73
2022/11/15 06:34:49;;;;;;;21.85;2.83;;;11.90;95.60;;;;;;5097129;28;20751;-73
2022/11/15 06:37:15;;;;;;;12.05;1.73;;;11.80;96.50;;;;;;5099327;28;20107;-73
2022/11/15 06:39:40;;;;;;;15.23;1.98;;;11.80;96.70;;;;;;5100080;28;20818;-73
2022/11/15 06:42:08;;;;;;;22.27;2.53;;;11.80;96.60;;;;;;5099449;28;20102;-74
2022/11/15 06:44:33;;;;;;;19.90;2.47;;;11.70;97.40;;;;;;5098646;28;20097;-73
2022/11/15 06:46:59;;;;;;;21.98;2.30;;;11.70;97.60;;;;;;5089994;28;20091;-73
2022/11/15 06:49:25;;;;;;;18.75;2.10;;;11.60;97.60;;;;;;5093507;28;20027;-73
2022/11/15 06:51:50;;;;;;;17.95;2.08;;;11.70;97.50;;;;;;5100015;28;20107;-73
2022/11/15 06:54:16;;;;;;;21.67;2.15;;;11.60;97.80;;;;;;5099143;28;20034;-73
2022/11/15 06:56:41;;;;;;;19.05;3.08;;;11.70;97.60;;;;;;5099153;28;20034;-73
2022/11/15 06:59:07;;;;;;;14.07;1.80;;;11.70;97.70;;;;;;5099495;28;20107;-73
2022/11/15 07:01:33;;;;;;;21.85;2.30;;;11.70;97.80;;;;;;5096954;28;20122;-73
2022/11/15 07:03:58;;;;;;;15.43;1.70;;;11.70;97.90;;;;;;5098812;28;20040;-73
2022/11/15 07:06:24;;;;;;;19.17;2.22;;;11.70;97.90;;;;;;5099252;28;20141;-73
2022/11/15 07:08:49;;;;;;;18.50;2.45;;;11.70;98.10;;;;;;5096320;28;20040;-72
2022/11/15 07:11:15;;;;;;;20.50;2.88;;;11.80;98.00;;;;;;5084485;28;20115;-72
2022/11/15 07:13:41;;;;;;;22.67;2.20;;;11.70;98.50;;;;;;5095475;28;20130;-72
2022/11/15 07:16:08;;;;;;;21.25;3.47;;;11.70;98.70;;;;;;5102838;28;20023;-72
2022/11/15 07:18:35;;;;;;;24.77;2.47;;;11.70;98.60;;;;;;5101984;28;20043;-72
2022/11/15 07:21:03;;;;;;;16.13;2.47;;;11.70;99.10;;;;;;5102038;28;20039;-72
2022/11/15 07:23:29;;;;;;;21.20;2.22;;;11.70;99.40;;;;;;5099875;28;20031;-72
2022/11/15 07:25:58;;;;;;;19.00;3.28;;;11.60;99.60;;;;;;5100299;28;20032;-72
2022/11/15 07:28:24;;;;;;;22.80;2.45;;;11.60;99.70;;;;;;5100509;28;20040;-72
2022/11/15 07:30:50;;;;;;;21.23;4.03;;;11.70;99.90;;;;;;5094056;28;20077;-71
2022/11/15 07:33:15;;;;;;;20.15;2.95;;;11.70;99.90;;;;;;5099463;28;20035;-72
2022/11/15 07:35:42;;;;;;;25.80;2.13;;;11.70;99.90;;;;;;5092324;28;20038;-72
2022/11/15 07:38:08;;;;;;;21.63;2.05;;;11.70;99.90;;;;;;5097285;28;20027;-72
2022/11/15 07:40:34;;;;;;;18.38;3.63;;;11.70;99.90;;;;;;5104664;28;20028;-72
2022/11/15 07:43:05;;;;;;;17.45;2.42;;;11.70;99.90;;;;;;5096207;28;20027;-73
2022/11/15 07:45:34;;;;;;;18.33;3.42;;;11.70;99.90;;;;;;5091574;28;20031;-72
2022/11/15 07:48:00;;;;;;;16.90;2.38;;;11.70;99.90;;;;;;5078352;28;20056;-73
2022/11/15 07:50:26;;;;;;;16.33;2.35;;;11.70;99.90;;;;;;5079500;28;20361;-72
2022/11/15 07:52:56;;;;;;;17.65;2.25;;;11.70;99.90;;;;;;5086001;28;20514;-72
2022/11/15 07:55:24;;;;;;;21.92;2.45;;;11.80;99.90;;;;;;5079724;28;20119;-72
2022/11/15 07:57:50;;;;;;;16.73;2.78;;;11.80;99.90;;;;;;5094487;28;20023;-73
2022/11/15 08:00:16;;;;;;;21.27;2.80;;;11.80;99.90;;;;;;5090551;28;20028;-72
2022/11/15 08:02:41;;;;;;;19.95;2.53;;;11.80;99.90;;;;;;5093235;28;20030;-72
2022/11/15 08:05:07;;;;;;;21.63;2.67;;;11.80;99.90;;;;;;5090621;28;20785;-72
2022/11/15 08:07:33;;;;;;;20.48;2.88;;;11.90;99.90;;;;;;5083216;28;20126;-72
2022/11/15 08:10:00;;;;;;;17.58;2.05;;;11.90;99.90;;;;;;5099588;28;20031;-73
2022/11/15 08:12:28;;;;;;;14.02;2.42;;;11.80;99.90;;;;;;5100679;28;20031;-72
2022/11/15 08:14:55;;;;;;;20.88;2.83;;;11.80;99.90;;;;;;5097138;28;20028;-72
2022/11/15 08:17:21;;;;;;;11.38;2.22;;;11.80;99.90;;;;;;5088251;28;20794;-71
2022/11/15 08:19:47;;;;;;;13.70;1.95;;;11.80;99.90;;;;;;5087135;28;20856;-72
2022/11/15 08:22:13;;;;;;;21.92;2.50;;;11.80;99.90;;;;;;5091337;28;20115;-72
2022/11/15 08:24:39;;;;;;;13.55;2.50;;;11.90;99.90;;;;;;5083690;28;20032;-72
2022/11/15 08:27:04;;;;;;;15.95;2.17;;;11.90;99.90;;;;;;5088908;28;20066;-72
2022/11/15 08:29:30;;;;;;;22.10;2.55;;;11.90;99.90;;;;;;5096109;28;20621;-72
2022/11/15 08:31:56;;;;;;;22.10;2.88;;;11.90;99.90;;;;;;5089707;28;20035;-72
2022/11/15 08:34:22;;;;;;;15.98;2.40;;;11.90;99.90;;;;;;5073330;28;20391;-71
2022/11/15 08:36:47;;;;;;;17.40;2.40;;;11.90;99.90;;;;;;5087097;28;20050;-71
2022/11/15 08:39:13;;;;;;;20.80;3.33;;;11.80;99.90;;;;;;5090507;28;20114;-71
2022/11/15 08:41:39;;;;;;;19.38;2.58;;;11.90;99.90;;;;;;5092433;28;20043;-72
2022/11/15 08:44:05;;;;;;;22.65;2.95;;;11.80;99.90;;;;;;5101632;28;20463;-71
2022/11/15 08:46:30;;;;;;;23.90;4.20;;;11.80;99.90;;;;;;5100559;28;20036;-73
2022/11/15 08:48:56;;;;;;;16.13;2.25;;;11.90;99.90;;;;;;5102753;28;20403;-72
2022/11/15 08:51:22;;;;;;;23.02;2.80;;;11.90;99.90;;;;;;5101871;28;20524;-73
2022/11/15 08:53:47;;;;;;;18.92;2.22;;;11.90;99.90;;;;;;5097158;28;20028;-73
2022/11/15 08:56:14;;;;;;;12.88;3.05;;;11.90;99.90;;;;;;5071607;28;20134;-72
2022/11/15 08:58:42;;;;;;;16.80;2.67;;;11.90;99.90;;;;;;5091400;28;20096;-73
2022/11/15 09:01:15;;;;;;;11.65;1.95;;;12.00;99.90;;;;;;5092479;28;20024;-73
2022/11/15 09:03:41;;;;;;;26.10;3.05;;;11.90;99.90;;;;;;5089605;28;20043;-72
2022/11/15 09:06:07;;;;;;;23.58;2.63;;;12.00;99.90;;;;;;5095231;28;20035;-72
2022/11/15 09:08:32;;;;;;;32.45;3.05;;;12.00;99.90;;;;;;5092260;28;20059;-72
2022/11/15 09:10:58;;;;;;;21.85;2.85;;;12.00;99.90;;;;;;5091413;28;20134;-73
2022/11/15 09:13:24;;;;;;;26.25;2.63;;;12.00;99.90;;;;;;5087085;28;20031;-73
2022/11/15 09:15:49;;;;;;;20.20;2.60;;;12.00;99.90;;;;;;5090122;28;20391;-75
2022/11/15 09:18:15;;;;;;;19.02;2.95;;;12.00;99.90;;;;;;5088738;28;20466;-72
2022/11/15 09:20:40;;;;;;;20.30;3.10;;;12.00;99.90;;;;;;5092720;28;20386;-72
2022/11/15 09:23:06;;;;;;;22.17;3.42;;;12.00;99.90;;;;;;5095078;28;20031;-72
2022/11/15 09:25:32;;;;;;;19.63;3.22;;;12.00;99.90;;;;;;5090288;28;20032;-73
2022/11/15 09:27:58;;;;;;;29.90;2.88;;;12.00;99.90;;;;;;5092467;28;20035;-74
2022/11/15 09:30:25;;;;;;;30.77;3.30;;;12.00;99.90;;;;;;5081019;28;20857;-72
2022/11/15 09:32:50;;;;;;;25.30;2.85;;;12.00;99.90;;;;;;5097575;28;20112;-73
2022/11/15 09:35:16;;;;;;;33.50;3.75;;;12.10;99.90;;;;;;5097695;28;20043;-73
2022/11/15 09:37:42;;;;;;;20.00;2.70;;;12.00;99.90;;;;;;5096830;28;20364;-73
2022/11/15 09:40:16;;;;;;;26.60;3.33;;;12.10;99.90;;;;;;5089462;28;20028;-73
2022/11/15 09:43:10;;;;;;;26.08;2.88;;;12.10;99.90;;;;;;5086682;28;20028;-72
2022/11/15 09:46:10;;;;;;;21.80;2.70;;;12.10;99.90;;;;;;5065127;28;20629;-73
2022/11/15 09:48:47;;;;;;;23.23;2.40;;;12.10;99.90;;;;;;5064071;28;20046;-74
2022/11/15 09:51:24;;;;;;;20.48;2.50;;;12.10;99.90;;;;;;5085928;28;20111;-74
2022/11/15 09:53:56;;;;;;;22.35;3.25;;;12.10;99.90;;;;;;5088620;28;20030;-73
2022/11/15 09:56:27;;;;;;;27.38;3.03;;;12.10;99.90;;;;;;5056202;28;20586;-74
2022/11/15 09:59:15;;;;;;;17.83;2.55;;;12.10;99.90;;;;;;5078664;28;20108;-73
2022/11/15 10:01:59;;;;;;;37.42;3.92;;;12.10;99.90;;;;;;5079440;28;20043;-74
2022/11/15 10:04:26;;;;;;;18.05;2.78;;;12.10;99.90;;;;;;5081598;28;20063;-73
2022/11/15 10:07:10;;;;;;;22.85;3.50;;;12.00;99.90;;;;;;5082788;28;20021;-72
2022/11/15 10:09:51;;;;;;;30.17;4.25;;;12.10;99.90;;;;;;5078152;28;20136;-72
2022/11/15 10:12:17;;;;;;;26.63;4.35;;;12.10;99.90;;;;;;5084821;28;20028;-72
2022/11/15 10:14:45;;;;;;;27.63;3.20;;;12.10;99.90;;;;;;5084204;28;20039;-72
2022/11/15 10:17:13;;;;;;;18.73;2.75;;;12.10;99.90;;;;;;5078896;28;20035;-72
2022/11/15 10:20:00;;;;;;;17.13;3.53;;;12.10;99.90;;;;;;5082450;28;20028;-73
2022/11/15 10:22:38;;;;;;;24.70;2.78;;;12.10;99.90;;;;;;5080578;28;20315;-72
2022/11/15 10:25:13;;;;;;;25.38;3.17;;;12.10;99.90;;;;;;5078996;28;20479;-73
2022/11/15 10:27:41;;;;;;;24.02;2.90;;;12.20;99.90;;;;;;5080152;28;20076;-72
2022/11/15 10:30:17;;;;;;;17.33;2.22;;;12.20;99.90;;;;;;5084167;28;20504;-73
2022/11/15 10:32:45;;;;;;;19.73;3.05;;;12.10;99.90;;;;;;5086213;28;20062;-73
2022/11/15 10:35:27;;;;;;;17.45;2.90;;;12.10;99.90;;;;;;5078066;28;20392;-73
2022/11/15 10:38:08;;;;;;;18.55;2.05;;;12.10;99.90;;;;;;5079477;28;20036;-73
2022/11/15 10:40:34;;;;;;;18.20;2.50;;;12.20;99.90;;;;;;5090104;28;20031;-72
2022/11/15 10:43:14;;;;;;;22.08;2.60;;;12.20;99.90;;;;;;5090013;28;20030;-72
2022/11/15 10:45:41;;;;;;;23.70;2.42;;;12.20;99.90;;;;;;5100199;28;20515;-72
2022/11/15 10:48:12;;;;;;;21.13;2.75;;;12.20;99.90;;;;;;5092124;28;20036;-73
2022/11/15 10:50:38;;;;;;;;;;;12.30;99.90;;;;;;5094717;28;20510;-73
2022/11/15 10:53:40;;;;;;;18.85;3.13;;;12.30;99.90;;;;;;5097646;28;20033;-73
2022/11/15 10:56:11;;;;;;;29.05;2.83;;;12.20;99.90;;;;;;5079414;28;20388;-74
2022/11/15 10:58:53;;;;;;;16.80;2.70;;;12.30;99.90;;;;;;5095967;28;20027;-73
2022/11/15 11:01:23;;;;;;;23.08;2.50;;;12.30;99.90;;;;;;5099422;28;20023;-73
2022/11/15 11:04:05;;;;;;;18.38;2.33;;;12.30;99.90;;;;;;5100703;28;20040;-72
2022/11/15 11:06:45;;;;;;;18.90;2.30;;;12.30;99.90;;;;;;5099456;28;20055;-73
2022/11/15 11:09:38;;;;;;;19.65;2.53;;;12.30;99.90;;;;;;5091261;28;20047;-73
2022/11/15 11:12:09;;;;;;;26.90;3.38;;;12.20;99.90;;;;;;5094523;28;20371;-73
2022/11/15 11:14:37;;;;;;;12.75;2.35;;;12.30;99.90;;;;;;5094218;28;20489;-73
2022/11/15 11:17:25;;;;;;;19.65;2.80;;;12.30;99.90;;;;;;5096526;28;20042;-73
2022/11/15 11:19:53;;;;;;;21.15;2.15;;;12.30;99.90;;;;;;5084228;28;20051;-73
2022/11/15 11:22:34;;;;;;;17.17;2.20;;;12.40;99.90;;;;;;5096069;28;20023;-73
2022/11/15 11:25:36;;;;;;;18.52;2.15;;;12.40;99.90;;;;;;5101100;28;20032;-73
2022/11/15 11:28:38;;;;;;;16.90;3.10;;;12.40;99.90;;;;;;5098769;28;20061;-73
2022/11/15 11:31:12;;;;;;;24.23;2.63;;;12.40;99.90;;;;;;5101834;28;20036;-73
2022/11/15 11:34:07;;;;;;;25.70;3.10;;;12.40;99.90;;;;;;5099721;28;20082;-73
2022/11/15 11:36:41;;;;;;;24.67;2.70;;;12.40;99.90;;;;;;5024780;28;20116;-73
2022/11/15 11:39:13;;;;;;;24.30;2.55;;;12.40;99.90;;;;;;5080358;28;20489;-73
2022/11/15 11:42:27;;;;;;;20.63;2.60;;;12.40;99.90;;;;;;5099032;28;20177;-73
